Fascination — C6FM9 — position and weather

sailwx.info

Track history (hours):
 
Tides and Currents Weather Stations Pressure Air Temp Water Temp Dewpoint Dewpoint Depression Visibility Wind Speed Wind Dir Waves Ship Positions

Fascination

Operator: Carnival Cruise Lines

Last reported at 2017-Feb-20 23:24 UTC. Time now 2017-Feb-24 08:20 UTC.
Position N 18°03' W 064°40'.

Type: Ship. MMSI: 309682000.

Date/timePositionNaut miles runAvg speedWind from/ knotsBaromVisibWave heightAir tempDewpointWater temp
2017-Feb-20 23:24N 18°03' W 064°40'1012.0
2017-Feb-20 22:33N 18°09' W 064°49'13 6.3
2017-Feb-20 20:33N 18°20' W 064°55'2 0.2
2017-Feb-20 10:16N 18°18' W 064°55'6910.2
2017-Feb-20 03:33N 18°33' W 066°06'5 4.1
2017-Feb-20 02:19N 18°28' W 066°07'0 0.0
2017-Feb-20 01:16N 18°28' W 066°07'0 0.0
2017-Feb-20 00:31N 18°28' W 066°07'0 0.0
2017-Feb-19 23:33N 18°28' W 066°07'0 0.0
2017-Feb-19 17:28N 18°28' W 066°07'0 0.0
2017-Feb-19 16:30N 18°28' W 066°07'0 0.0
2017-Feb-19 15:30N 18°28' W 066°07'69 6.1
2017-Feb-19 04:06N 18°09' W 064°56'4215.8
2017-Feb-19 01:26N 18°04' W 064°12'5315.9
2017-Feb-18 22:05N 18°01' W 063°17'1015.7
2017-Feb-18 21:28N 18°00' W 063°06'3 0.3
2017-Feb-18 12:06N 18°01' W 063°03'0 0.2
2017-Feb-18 10:31N 18°00' W 063°03'6 6.4
2017-Feb-18 09:30N 18°01' W 063°10'9 9.1
2017-Feb-18 08:28N 18°03' W 063°19'8 8.2
2017-Feb-18 07:29N 18°05' W 063°28'7 7.9
2017-Feb-18 06:33N 18°06' W 063°35'8 6.9
2017-Feb-18 05:19N 18°01' W 063°42'7 8.3
2017-Feb-18 04:31N 17°59' W 063°35'8 8.5
2017-Feb-18 03:31N 17°59' W 063°26'9 8.8
2017-Feb-18 02:30N 17°54' W 063°19'1110.7
2017-Feb-18 01:26N 17°46' W 063°10'1210.4
2017-Feb-18 00:15N 17°34' W 063°07'59 3.9
2017-Feb-17 09:11N 16°44' W 062°32'1218.8
2017-Feb-17 08:33N 16°34' W 062°27'  
2017-Feb-13 23:18N 18°05' W 064°44'911.5
2017-Feb-13 22:30N 18°10' W 064°52'9 0.7
2017-Feb-13 10:15N 18°18' W 064°55'66 9.7
2017-Feb-13 03:30N 18°35' W 066°02'9 9.4
2017-Feb-13 02:33N 18°28' W 066°08'1 1.2
2017-Feb-13 01:32N 18°28' W 066°07'0 0.0
2017-Feb-13 00:31N 18°28' W 066°07'0 0.0
2017-Feb-12 23:31N 18°28' W 066°07'0 0.0
2017-Feb-12 22:31N 18°28' W 066°07'0 0.0
2017-Feb-12 21:33N 18°28' W 066°07'0 0.0
2017-Feb-12 20:33N 18°28' W 066°07'0 0.0
2017-Feb-12 19:32N 18°28' W 066°07'0 0.0
2017-Feb-12 18:32N 18°28' W 066°07'0 0.0
2017-Feb-12 17:31N 18°28' W 066°07'0 0.0
2017-Feb-12 16:28N 18°28' W 066°07'0 0.0
2017-Feb-12 15:25N 18°28' W 066°07'0 0.0
2017-Feb-12 14:33N 18°28' W 066°07'0 0.0
2017-Feb-12 13:33N 18°28' W 066°07'0 0.0
2017-Feb-12 12:32N 18°28' W 066°07'0 0.0
2017-Feb-12 11:33N 18°28' W 066°07'0 0.1
2017-Feb-12 10:33N 18°28' W 066°07'7 6.8
2017-Feb-12 09:33N 18°34' W 066°04'6612.4
2017-Feb-12 04:14N 18°10' W 064°59'1316.0
2017-Feb-12 03:25N 18°07' W 064°46'6115.8
2017-Feb-11 23:32N 18°02' W 063°41'1615.9
2017-Feb-11 22:32N 18°01' W 063°24'1616.1
2017-Feb-11 21:33N 18°01' W 063°08'5 0.5
2017-Feb-11 11:18N 18°01' W 063°03'0 0.3
2017-Feb-11 10:23N 18°00' W 063°03'6 7.6
2017-Feb-11 09:33N 18°01' W 063°10'9 8.9
2017-Feb-11 08:33N 18°03' W 063°19'9 8.2
2017-Feb-11 07:26N 18°06' W 063°28'8 8.3
2017-Feb-11 06:32N 18°08' W 063°35'6 6.1
2017-Feb-11 05:28N 18°03' W 063°40'6 6.6
2017-Feb-11 04:32N 17°59' W 063°35'9 9.2
2017-Feb-11 03:34N 17°59' W 063°25'9 9.0
2017-Feb-11 02:33N 17°53' W 063°18'1110.6
2017-Feb-11 01:32N 17°46' W 063°10'10 9.8
2017-Feb-11 00:32N 17°36' W 063°07'  
Track history (hours):
 
Tides and Currents Weather Stations Pressure Air Temp Water Temp Dewpoint Dewpoint Depression Visibility Wind Speed Wind Dir Waves Ship Positions

Fascination

Operator: Carnival Cruise Lines

Last reported at 2017-Feb-20 23:24 UTC. Time now 2017-Feb-24 08:20 UTC.
Position N 18°03' W 064°40'.

Type: Ship. MMSI: 309682000.

Date/timePositionNaut miles runAvg speedWind from/ knotsBaromVisibWave heightAir tempDewpointWater temp
2017-Feb-20 23:24N 18°03' W 064°40'1012.0
2017-Feb-20 22:33N 18°09' W 064°49'13 6.3
2017-Feb-20 20:33N 18°20' W 064°55'2 0.2
2017-Feb-20 10:16N 18°18' W 064°55'6910.2
2017-Feb-20 03:33N 18°33' W 066°06'5 4.1
2017-Feb-20 02:19N 18°28' W 066°07'0 0.0
2017-Feb-20 01:16N 18°28' W 066°07'0 0.0
2017-Feb-20 00:31N 18°28' W 066°07'0 0.0
2017-Feb-19 23:33N 18°28' W 066°07'0 0.0
2017-Feb-19 17:28N 18°28' W 066°07'0 0.0
2017-Feb-19 16:30N 18°28' W 066°07'0 0.0
2017-Feb-19 15:30N 18°28' W 066°07'69 6.1
2017-Feb-19 04:06N 18°09' W 064°56'4215.8
2017-Feb-19 01:26N 18°04' W 064°12'5315.9
2017-Feb-18 22:05N 18°01' W 063°17'1015.7
2017-Feb-18 21:28N 18°00' W 063°06'3 0.3
2017-Feb-18 12:06N 18°01' W 063°03'0 0.2
2017-Feb-18 10:31N 18°00' W 063°03'6 6.4
2017-Feb-18 09:30N 18°01' W 063°10'9 9.1
2017-Feb-18 08:28N 18°03' W 063°19'8 8.2
2017-Feb-18 07:29N 18°05' W 063°28'7 7.9
2017-Feb-18 06:33N 18°06' W 063°35'8 6.9
2017-Feb-18 05:19N 18°01' W 063°42'7 8.3
2017-Feb-18 04:31N 17°59' W 063°35'8 8.5
2017-Feb-18 03:31N 17°59' W 063°26'9 8.8
2017-Feb-18 02:30N 17°54' W 063°19'1110.7
2017-Feb-18 01:26N 17°46' W 063°10'1210.4
2017-Feb-18 00:15N 17°34' W 063°07'59 3.9
2017-Feb-17 09:11N 16°44' W 062°32'1218.8
2017-Feb-17 08:33N 16°34' W 062°27'  
2017-Feb-13 23:18N 18°05' W 064°44'911.5
2017-Feb-13 22:30N 18°10' W 064°52'9 0.7
2017-Feb-13 10:15N 18°18' W 064°55'66 9.7
2017-Feb-13 03:30N 18°35' W 066°02'9 9.4
2017-Feb-13 02:33N 18°28' W 066°08'1 1.2
2017-Feb-13 01:32N 18°28' W 066°07'0 0.0
2017-Feb-13 00:31N 18°28' W 066°07'0 0.0
2017-Feb-12 23:31N 18°28' W 066°07'0 0.0
2017-Feb-12 22:31N 18°28' W 066°07'0 0.0
2017-Feb-12 21:33N 18°28' W 066°07'0 0.0
2017-Feb-12 20:33N 18°28' W 066°07'0 0.0
2017-Feb-12 19:32N 18°28' W 066°07'0 0.0
2017-Feb-12 18:32N 18°28' W 066°07'0 0.0
2017-Feb-12 17:31N 18°28' W 066°07'0 0.0
2017-Feb-12 16:28N 18°28' W 066°07'0 0.0
2017-Feb-12 15:25N 18°28' W 066°07'0 0.0
2017-Feb-12 14:33N 18°28' W 066°07'0 0.0
2017-Feb-12 13:33N 18°28' W 066°07'0 0.0
2017-Feb-12 12:32N 18°28' W 066°07'0 0.0
2017-Feb-12 11:33N 18°28' W 066°07'0 0.1
2017-Feb-12 10:33N 18°28' W 066°07'7 6.8
2017-Feb-12 09:33N 18°34' W 066°04'6612.4
2017-Feb-12 04:14N 18°10' W 064°59'1316.0
2017-Feb-12 03:25N 18°07' W 064°46'6115.8
2017-Feb-11 23:32N 18°02' W 063°41'1615.9
2017-Feb-11 22:32N 18°01' W 063°24'1616.1
2017-Feb-11 21:33N 18°01' W 063°08'5 0.5
2017-Feb-11 11:18N 18°01' W 063°03'0 0.3
2017-Feb-11 10:23N 18°00' W 063°03'6 7.6
2017-Feb-11 09:33N 18°01' W 063°10'9 8.9
2017-Feb-11 08:33N 18°03' W 063°19'9 8.2
2017-Feb-11 07:26N 18°06' W 063°28'8 8.3
2017-Feb-11 06:32N 18°08' W 063°35'6 6.1
2017-Feb-11 05:28N 18°03' W 063°40'6 6.6
2017-Feb-11 04:32N 17°59' W 063°35'9 9.2
2017-Feb-11 03:34N 17°59' W 063°25'9 9.0
2017-Feb-11 02:33N 17°53' W 063°18'1110.6
2017-Feb-11 01:32N 17°46' W 063°10'10 9.8
2017-Feb-11 00:32N 17°36' W 063°07'  

Dump ship's entire track history